Time;durP1;ratioP1;P1;durP2;ratioP2;P2;SDS_P1;SDS_P2;PMS_P1;PMS_P2;Temp;Humidity;BMP_temperature;BMP_pressure;BME280_temperature;BME280_humidity;BME280_pressure;Samples;Min_cycle;Max_cycle;Signal;HPM_P1;HPM_P2
2023/08/31 05:20:40;;;;;;;;;;;;;;;;;;5034157;28;20394;-45
2023/08/31 05:23:06;;;;;;;;;;;;;;;;;;5034155;28;20020;-45
2023/08/31 05:25:32;;;;;;;;;;;;;;;;;;5034013;28;20371;-46
2023/08/31 05:27:58;;;;;;;;;;;;;;;;;;5033531;28;19967;-46
2023/08/31 05:30:24;;;;;;;;;;;;;;;;;;5034341;28;19909;-44
2023/08/31 05:32:50;;;;;;;;;;;;;;;;;;5033730;28;19945;-44
2023/08/31 05:35:16;;;;;;;;;;;;;;;;;;5032888;28;19967;-43
2023/08/31 05:37:42;;;;;;;;;;;;;;;;;;5033863;28;19913;-43
2023/08/31 05:40:10;;;;;;;;;;;;;;;;;;5033612;28;20303;-44
2023/08/31 05:42:36;;;;;;;;;;;;;;;;;;5032705;28;20036;-44
2023/08/31 05:45:02;;;;;;;;;;;;;;;;;;5032359;28;19920;-45
2023/08/31 05:47:28;;;;;;;;;;;;;;;;;;5033452;28;20419;-43
2023/08/31 05:49:53;;;;;;;;;;;;;;;;;;5034003;28;19909;-46
2023/08/31 05:52:19;;;;;;;;;;;;;;;;;;5033528;28;19913;-44
2023/08/31 05:54:45;;;;;;;;;;;;;;;;;;5032753;28;19909;-46
2023/08/31 05:57:11;;;;;;;;;;;;;;;;;;5032234;28;19913;-43
2023/08/31 05:59:37;;;;;;;;;;;;;;;;;;5029379;28;19991;-43
2023/08/31 06:02:04;;;;;;;;;;;;;;;;;;5013287;28;20366;-44
2023/08/31 06:04:31;;;;;;;;;;;;;;;;;;5022064;28;20415;-43
2023/08/31 06:06:57;;;;;;;;;;;;;;;;;;5030658;28;20004;-44
2023/08/31 06:09:22;;;;;;;;;;;;;;;;;;5032242;28;20004;-44
2023/08/31 06:11:48;;;;;;;;;;;;;;;;;;5033014;28;20020;-44
2023/08/31 06:14:14;;;;;;;;;;;;;;;;;;5032922;28;19916;-44
2023/08/31 06:16:40;;;;;;;;;;;;;;;;;;5033183;28;19909;-43
2023/08/31 06:19:06;;;;;;;;;;;;;;;;;;5029408;28;20418;-44
2023/08/31 06:21:32;;;;;;;;;;;;;;;;;;5033086;28;19967;-43
2023/08/31 06:23:58;;;;;;;;;;;;;;;;;;5026638;28;19924;-44
2023/08/31 06:26:24;;;;;;;;;;;;;;;;;;5015882;28;19956;-46
2023/08/31 06:28:50;;;;;;;;;;;;;;;;;;5028280;28;20552;-43
2023/08/31 06:31:16;;;;;;;;;;;;;;;;;;5028123;28;19952;-43
2023/08/31 06:33:42;;;;;;;;;;;;;;;;;;5031530;28;19964;-44
2023/08/31 06:36:08;;;;;;;;;;;;;;;;;;5032430;28;19909;-44
2023/08/31 06:38:35;;;;;;;;;;;;;;;;;;5031507;28;19913;-44
2023/08/31 06:41:01;;;;;;;;;;;;;;;;;;5032689;28;19916;-44
2023/08/31 06:43:27;;;;;;;;;;;;;;;;;;5032644;28;19910;-43
2023/08/31 06:45:52;;;;;;;;;;;;;;;;;;5032565;28;20288;-44
2023/08/31 06:48:18;;;;;;;;;;;;;;;;;;5030475;28;19917;-44
2023/08/31 06:50:44;;;;;;;;;;;;;;;;;;5029857;28;19913;-45
2023/08/31 06:53:10;;;;;;;;;;;;;;;;;;5031549;28;19917;-45
2023/08/31 06:55:36;;;;;;;;;;;;;;;;;;5028199;28;19967;-45
2023/08/31 06:58:04;;;;;;;;;;;;;;;;;;5026202;28;19917;-43
2023/08/31 07:00:32;;;;;;;;;;;;;;;;;;5024595;28;19913;-43
2023/08/31 07:02:58;;;;;;;;;;;;;;;;;;5032366;28;19913;-45
2023/08/31 07:05:25;;;;;;;;;;;;;;;;;;5031887;28;19920;-44
2023/08/31 07:07:51;;;;;;;;;;;;;;;;;;5031814;28;19963;-46
2023/08/31 07:10:17;;;;;;;;;;;;;;;;;;5030138;28;19917;-43
2023/08/31 07:12:43;;;;;;;;;;;;;;;;;;5028515;28;19968;-44
2023/08/31 07:15:09;;;;;;;;;;;;;;;;;;5029886;28;19913;-45
2023/08/31 07:17:34;;;;;;;;;;;;;;;;;;5031312;28;19909;-45
2023/08/31 07:20:00;;;;;;;;;;;;;;;;;;5032646;28;20273;-45
2023/08/31 07:22:26;;;;;;;;;;;;;;;;;;5028155;28;20007;-43
2023/08/31 07:24:52;;;;;;;;;;;;;;;;;;5013264;28;20544;-43
2023/08/31 07:27:18;;;;;;;;;;;;;;;;;;5031407;28;19913;-45
2023/08/31 07:29:44;;;;;;;;;;;;;;;;;;5029967;28;19944;-43
2023/08/31 07:32:10;;;;;;;;;;;;;;;;;;5030774;28;19921;-43
2023/08/31 07:34:36;;;;;;;;;;;;;;;;;;5031950;28;19971;-44
2023/08/31 07:37:02;;;;;;;;;;;;;;;;;;5031664;28;19975;-45
2023/08/31 07:39:28;;;;;;;;;;;;;;;;;;5031856;28;19913;-44
2023/08/31 07:41:54;;;;;;;;;;;;;;;;;;5015495;28;20441;-44
2023/08/31 07:44:21;;;;;;;;;;;;;;;;;;5030413;28;19924;-43
2023/08/31 07:46:47;;;;;;;;;;;;;;;;;;5022180;28;20008;-46
2023/08/31 07:49:13;;;;;;;;;;;;;;;;;;5030826;28;20514;-43
2023/08/31 07:51:38;;;;;;;;;;;;;;;;;;5013354;28;19920;-47
2023/08/31 07:54:04;;;;;;;;;;;;;;;;;;5031242;28;20387;-45
2023/08/31 07:56:30;;;;;;;;;;;;;;;;;;5031533;28;20006;-44
2023/08/31 07:58:56;;;;;;;;;;;;;;;;;;5030370;28;19938;-44
2023/08/31 08:01:22;;;;;;;;;;;;;;;;;;5031925;28;19913;-47
2023/08/31 08:03:48;;;;;;;;;;;;;;;;;;5031804;28;20284;-45
2023/08/31 08:06:14;;;;;;;;;;;;;;;;;;5031571;28;19913;-44
2023/08/31 08:08:40;;;;;;;;;;;;;;;;;;5028912;28;20526;-44
2023/08/31 08:11:05;;;;;;;;;;;;;;;;;;5029683;28;19909;-45
2023/08/31 08:13:31;;;;;;;;;;;;;;;;;;5011332;28;21430;-43
2023/08/31 08:15:57;;;;;;;;;;;;;;;;;;5012266;28;19914;-44
2023/08/31 08:18:23;;;;;;;;;;;;;;;;;;5011810;28;19917;-43
2023/08/31 08:20:49;;;;;;;;;;;;;;;;;;5011667;28;19917;-43
2023/08/31 08:23:15;;;;;;;;;;;;;;;;;;5023806;28;19914;-44
2023/08/31 08:25:41;;;;;;;;;;;;;;;;;;5031006;28;19917;-43
2023/08/31 08:28:07;;;;;;;;;;;;;;;;;;5031372;28;19909;-46
2023/08/31 08:30:33;;;;;;;;;;;;;;;;;;5030892;28;20364;-44
2023/08/31 08:32:58;;;;;;;;;;;;;;;;;;5031605;28;20019;-44
2023/08/31 08:35:25;;;;;;;;;;;;;;;;;;5043802;28;19909;-45
2023/08/31 08:37:51;;;;;;;;;;;;;;;;;;5040812;28;20418;-43
2023/08/31 08:40:17;;;;;;;;;;;;;;;;;;5023548;28;19920;-44
2023/08/31 08:42:43;;;;;;;;;;;;;;;;;;5029710;28;19939;-43
2023/08/31 08:45:08;;;;;;;;;;;;;;;;;;5027740;28;19913;-43
2023/08/31 08:47:34;;;;;;;;;;;;;;;;;;5029754;28;19921;-43
2023/08/31 08:50:00;;;;;;;;;;;;;;;;;;5028661;28;19913;-45
2023/08/31 08:52:26;;;;;;;;;;;;;;;;;;5028814;28;20016;-45
2023/08/31 08:54:52;;;;;;;;;;;;;;;;;;5028650;28;19924;-43
2023/08/31 08:57:18;;;;;;;;;;;;;;;;;;5030131;28;20004;-43
2023/08/31 08:59:44;;;;;;;;;;;;;;;;;;5029238;28;19909;-45
2023/08/31 09:02:10;;;;;;;;;;;;;;;;;;5021983;28;19917;-45
2023/08/31 09:04:36;;;;;;;;;;;;;;;;;;5010201;28;19913;-45
2023/08/31 09:07:02;;;;;;;;;;;;;;;;;;5026308;28;20430;-46
2023/08/31 09:09:28;;;;;;;;;;;;;;;;;;5015340;28;19944;-44
2023/08/31 09:11:55;;;;;;;;;;;;;;;;;;5010152;28;19915;-45
2023/08/31 09:14:21;;;;;;;;;;;;;;;;;;5010215;28;19909;-45
2023/08/31 09:16:47;;;;;;;;;;;;;;;;;;5010412;28;20347;-45
2023/08/31 09:19:13;;;;;;;;;;;;;;;;;;5010187;28;19937;-46
2023/08/31 09:21:40;;;;;;;;;;;;;;;;;;5025512;28;19923;-47
2023/08/31 09:24:10;;;;;;;;;;;;;;;;;;5029716;28;19940;-44
2023/08/31 09:26:36;;;;;;;;;;;;;;;;;;5029909;28;19909;-44
2023/08/31 09:29:02;;;;;;;;;;;;;;;;;;5030038;28;20467;-44
2023/08/31 09:31:28;;;;;;;;;;;;;;;;;;5028242;28;20133;-44
2023/08/31 09:33:54;;;;;;;;;;;;;;;;;;5010187;28;19920;-47
2023/08/31 09:36:19;;;;;;;;;;;;;;;;;;5027646;28;20032;-47
2023/08/31 09:38:45;;;;;;;;;;;;;;;;;;5021253;28;19928;-43
2023/08/31 09:41:11;;;;;;;;;;;;;;;;;;5027325;28;19913;-45
2023/08/31 09:43:37;;;;;;;;;;;;;;;;;;5030201;28;19949;-45
2023/08/31 09:46:03;;;;;;;;;;;;;;;;;;5028287;28;19972;-44
2023/08/31 09:48:29;;;;;;;;;;;;;;;;;;5030146;28;19913;-45
2023/08/31 09:50:55;;;;;;;;;;;;;;;;;;5031213;28;20148;-45
2023/08/31 09:53:21;;;;;;;;;;;;;;;;;;5031302;28;19920;-46
2023/08/31 09:55:47;;;;;;;;;;;;;;;;;;5031226;28;19916;-46
2023/08/31 09:58:12;;;;;;;;;;;;;;;;;;5030012;28;19997;-44
2023/08/31 10:00:38;;;;;;;;;;;;;;;;;;5032095;28;19994;-44
2023/08/31 10:03:04;;;;;;;;;;;;;;;;;;5031566;28;19935;-47
2023/08/31 10:05:30;;;;;;;;;;;;;;;;;;5030784;28;19917;-43
2023/08/31 10:07:56;;;;;;;;;;;;;;;;;;5028112;28;19941;-44
2023/08/31 10:10:22;;;;;;;;;;;;;;;;;;5030594;28;20010;-45
2023/08/31 10:12:48;;;;;;;;;;;;;;;;;;5012440;28;20310;-44
2023/08/31 10:15:14;;;;;;;;;;;;;;;;;;5031514;28;19914;-43
2023/08/31 10:17:40;;;;;;;;;;;;;;;;;;5031538;28;19920;-46
2023/08/31 10:20:06;;;;;;;;;;;;;;;;;;5032884;28;20530;-44
2023/08/31 10:22:32;;;;;;;;;;;;;;;;;;5031385;28;20335;-45
2023/08/31 10:25:03;;;;;;;;;;;;;;;;;;5030046;28;19967;-45
2023/08/31 10:27:29;;;;;;;;;;;;;;;;;;5032469;28;19913;-44
2023/08/31 10:29:55;;;;;;;;;;;;;;;;;;5031914;28;19913;-47
2023/08/31 10:32:21;;;;;;;;;;;;;;;;;;5032233;28;20399;-48
2023/08/31 10:34:47;;;;;;;;;;;;;;;;;;5031600;28;19960;-45
2023/08/31 10:37:13;;;;;;;;;;;;;;;;;;5032307;28;19956;-44
2023/08/31 10:39:39;;;;;;;;;;;;;;;;;;5032722;28;19913;-44
2023/08/31 10:42:05;;;;;;;;;;;;;;;;;;5030962;28;20433;-44
2023/08/31 10:44:31;;;;;;;;;;;;;;;;;;5030101;28;19944;-44
2023/08/31 10:46:57;;;;;;;;;;;;;;;;;;5032638;28;19910;-49
2023/08/31 10:49:23;;;;;;;;;;;;;;;;;;5031977;28;19917;-46
2023/08/31 10:51:49;;;;;;;;;;;;;;;;;;5031127;28;19967;-48
2023/08/31 10:54:15;;;;;;;;;;;;;;;;;;5030208;28;19913;-46
2023/08/31 10:56:40;;;;;;;;;;;;;;;;;;5030727;28;19913;-44
2023/08/31 10:59:06;;;;;;;;;;;;;;;;;;5031836;28;20257;-44
2023/08/31 11:01:32;;;;;;;;;;;;;;;;;;5031228;28;19999;-45
2023/08/31 11:03:58;;;;;;;;;;;;;;;;;;5031956;28;20364;-45
2023/08/31 11:06:28;;;;;;;;;;;;;;;;;;5030386;28;19914;-43
2023/08/31 11:08:54;;;;;;;;;;;;;;;;;;5031274;28;20252;-46
2023/08/31 11:11:20;;;;;;;;;;;;;;;;;;5030099;28;20008;-46
2023/08/31 11:13:46;;;;;;;;;;;;;;;;;;5011634;28;20399;-45
2023/08/31 11:16:12;;;;;;;;;;;;;;;;;;5025230;28;19924;-47
2023/08/31 11:18:38;;;;;;;;;;;;;;;;;;5028878;28;19909;-45
2023/08/31 11:21:05;;;;;;;;;;;;;;;;;;5028448;28;19921;-45
2023/08/31 11:23:31;;;;;;;;;;;;;;;;;;5027247;28;19913;-44
2023/08/31 11:25:57;;;;;;;;;;;;;;;;;;5027793;28;19913;-45
2023/08/31 11:28:23;;;;;;;;;;;;;;;;;;5026291;28;19913;-45
2023/08/31 11:30:49;;;;;;;;;;;;;;;;;;5025550;28;19917;-45
2023/08/31 11:33:15;;;;;;;;;;;;;;;;;;5024537;28;19953;-45
2023/08/31 11:35:41;;;;;;;;;;;;;;;;;;5029540;28;20261;-46
2023/08/31 11:38:06;;;;;;;;;;;;;;;;;;5029079;28;20415;-46
2023/08/31 11:40:32;;;;;;;;;;;;;;;;;;5028789;28;20280;-45
2023/08/31 11:43:00;;;;;;;;;;;;;;;;;;5007004;28;19924;-47
2023/08/31 11:45:26;;;;;;;;;;;;;;;;;;5029173;28;19971;-45
2023/08/31 11:47:52;;;;;;;;;;;;;;;;;;5026664;28;19913;-44
2023/08/31 11:50:17;;;;;;;;;;;;;;;;;;5023271;28;19917;-44
2023/08/31 11:52:43;;;;;;;;;;;;;;;;;;5028945;28;19913;-44
2023/08/31 11:55:09;;;;;;;;;;;;;;;;;;5022629;28;19913;-45
2023/08/31 11:57:35;;;;;;;;;;;;;;;;;;5019251;28;20380;-44
2023/08/31 12:00:01;;;;;;;;;;;;;;;;;;5025543;28;19917;-44
2023/08/31 12:02:27;;;;;;;;;;;;;;;;;;5025104;28;19916;-44
2023/08/31 12:04:53;;;;;;;;;;;;;;;;;;5026975;28;19917;-45
2023/08/31 12:07:19;;;;;;;;;;;;;;;;;;5026759;28;19917;-48
2023/08/31 12:09:44;;;;;;;;;;;;;;;;;;5024324;28;19967;-45
2023/08/31 12:12:10;;;;;;;;;;;;;;;;;;5026887;28;19923;-43
2023/08/31 12:14:36;;;;;;;;;;;;;;;;;;5026103;28;19956;-44
2023/08/31 12:17:05;;;;;;;;;;;;;;;;;;5030379;28;19932;-45
2023/08/31 12:19:31;;;;;;;;;;;;;;;;;;5025753;28;19917;-43
2023/08/31 12:21:57;;;;;;;;;;;;;;;;;;5026351;28;19948;-46
2023/08/31 12:24:23;;;;;;;;;;;;;;;;;;5027252;28;19923;-44
2023/08/31 12:26:49;;;;;;;;;;;;;;;;;;5028568;28;20028;-44
2023/08/31 12:29:15;;;;;;;;;;;;;;;;;;5026148;28;19920;-44
2023/08/31 12:31:41;;;;;;;;;;;;;;;;;;5024992;28;20000;-45
2023/08/31 12:34:07;;;;;;;;;;;;;;;;;;5029071;28;19916;-46
2023/08/31 12:36:32;;;;;;;;;;;;;;;;;;5026781;28;20350;-46
2023/08/31 12:39:01;;;;;;;;;;;;;;;;;;5024746;28;19963;-45
2023/08/31 12:41:27;;;;;;;;;;;;;;;;;;5024710;28;19913;-45
2023/08/31 12:43:53;;;;;;;;;;;;;;;;;;5034568;28;19928;-45
2023/08/31 12:46:18;;;;;;;;;;;;;;;;;;5027162;28;19921;-46
2023/08/31 12:48:44;;;;;;;;;;;;;;;;;;5024785;28;19959;-44
2023/08/31 12:51:10;;;;;;;;;;;;;;;;;;5024601;28;19920;-45
2023/08/31 12:53:36;;;;;;;;;;;;;;;;;;5028672;28;19909;-45
2023/08/31 12:56:03;;;;;;;;;;;;;;;;;;5027374;28;20040;-44
2023/08/31 12:58:29;;;;;;;;;;;;;;;;;;5026984;28;20012;-46
2023/08/31 13:00:55;;;;;;;;;;;;;;;;;;5025354;28;20415;-45
2023/08/31 13:03:21;;;;;;;;;;;;;;;;;;5025481;28;19914;-46
2023/08/31 13:05:47;;;;;;;;;;;;;;;;;;5027869;28;19913;-48
2023/08/31 13:08:13;;;;;;;;;;;;;;;;;;5025388;28;19927;-47
2023/08/31 13:10:39;;;;;;;;;;;;;;;;;;5025471;28;19913;-43
2023/08/31 13:13:05;;;;;;;;;;;;;;;;;;5026121;28;20002;-46
2023/08/31 13:15:31;;;;;;;;;;;;;;;;;;5020684;28;19928;-43
2023/08/31 13:17:57;;;;;;;;;;;;;;;;;;5028970;28;20473;-44
2023/08/31 13:20:23;;;;;;;;;;;;;;;;;;5027463;28;19925;-44
2023/08/31 13:22:49;;;;;;;;;;;;;;;;;;5031398;28;19909;-48
2023/08/31 13:25:15;;;;;;;;;;;;;;;;;;5031456;28;20651;-45
2023/08/31 13:27:41;;;;;;;;;;;;;;;;;;5031577;28;19913;-47
2023/08/31 13:30:07;;;;;;;;;;;;;;;;;;5031722;28;20368;-46
2023/08/31 13:32:33;;;;;;;;;;;;;;;;;;5028339;28;19917;-46
2023/08/31 13:34:59;;;;;;;;;;;;;;;;;;5029135;28;19959;-44
2023/08/31 13:37:24;;;;;;;;;;;;;;;;;;5030386;28;19921;-44
2023/08/31 13:39:52;;;;;;;;;;;;;;;;;;5031374;28;19935;-45
2023/08/31 13:42:17;;;;;;;;;;;;;;;;;;5031241;28;20293;-46
2023/08/31 13:44:43;;;;;;;;;;;;;;;;;;5029350;28;19924;-46
2023/08/31 13:47:09;;;;;;;;;;;;;;;;;;5028464;28;19997;-45
2023/08/31 13:49:35;;;;;;;;;;;;;;;;;;5031145;28;19963;-44
2023/08/31 13:52:01;;;;;;;;;;;;;;;;;;5030581;28;19917;-45
2023/08/31 13:54:27;;;;;;;;;;;;;;;;;;5031194;28;20316;-44
2023/08/31 13:56:53;;;;;;;;;;;;;;;;;;5030202;28;20425;-45
2023/08/31 13:59:19;;;;;;;;;;;;;;;;;;5030211;28;19913;-44
2023/08/31 14:01:45;;;;;;;;;;;;;;;;;;5031758;28;19917;-46
2023/08/31 14:04:11;;;;;;;;;;;;;;;;;;5029464;28;19922;-44
2023/08/31 14:06:37;;;;;;;;;;;;;;;;;;5029583;28;19913;-44
2023/08/31 14:09:04;;;;;;;;;;;;;;;;;;5029303;28;20391;-48
2023/08/31 14:11:30;;;;;;;;;;;;;;;;;;5029939;28;20538;-44
2023/08/31 14:13:56;;;;;;;;;;;;;;;;;;5029239;28;19952;-47
2023/08/31 14:16:22;;;;;;;;;;;;;;;;;;5029421;28;19913;-44
2023/08/31 14:18:48;;;;;;;;;;;;;;;;;;5029752;28;20157;-45
2023/08/31 14:21:14;;;;;;;;;;;;;;;;;;5029398;28;20344;-44
2023/08/31 14:23:40;;;;;;;;;;;;;;;;;;5029141;28;19913;-47
2023/08/31 14:26:06;;;;;;;;;;;;;;;;;;5029527;28;19910;-45
2023/08/31 14:28:33;;;;;;;;;;;;;;;;;;5026876;28;20301;-45
2023/08/31 14:30:59;;;;;;;;;;;;;;;;;;5029157;28;19909;-44
2023/08/31 14:33:25;;;;;;;;;;;;;;;;;;5029535;28;19909;-46
2023/08/31 14:35:53;;;;;;;;;;;;;;;;;;5028988;28;19944;-44
2023/08/31 14:38:18;;;;;;;;;;;;;;;;;;5011458;28;19956;-45
2023/08/31 14:40:44;;;;;;;;;;;;;;;;;;5011255;28;19963;-45
2023/08/31 14:43:11;;;;;;;;;;;;;;;;;;5028806;28;19988;-44
2023/08/31 14:45:38;;;;;;;;;;;;;;;;;;5010825;28;20137;-45
2023/08/31 14:48:04;;;;;;;;;;;;;;;;;;5028635;28;20298;-46
2023/08/31 14:50:30;;;;;;;;;;;;;;;;;;5029358;28;20003;-44
2023/08/31 14:52:56;;;;;;;;;;;;;;;;;;5029000;28;19915;-44
2023/08/31 14:55:21;;;;;;;;;;;;;;;;;;5028350;28;20295;-43
2023/08/31 14:57:47;;;;;;;;;;;;;;;;;;5029138;28;19910;-45
2023/08/31 15:00:14;;;;;;;;;;;;;;;;;;5028444;28;19909;-44
2023/08/31 15:02:40;;;;;;;;;;;;;;;;;;5028660;28;19909;-44
2023/08/31 15:05:06;;;;;;;;;;;;;;;;;;5028169;28;19913;-46
2023/08/31 15:07:32;;;;;;;;;;;;;;;;;;5028527;28;19940;-46
2023/08/31 15:09:58;;;;;;;;;;;;;;;;;;5028307;28;20007;-46
2023/08/31 15:12:24;;;;;;;;;;;;;;;;;;5028133;28;19909;-46
2023/08/31 15:14:49;;;;;;;;;;;;;;;;;;5029400;28;19959;-44
2023/08/31 15:17:15;;;;;;;;;;;;;;;;;;5028741;28;19909;-44
2023/08/31 15:19:41;;;;;;;;;;;;;;;;;;5027848;28;19963;-45
2023/08/31 15:22:07;;;;;;;;;;;;;;;;;;5028368;28;19909;-44
2023/08/31 15:24:33;;;;;;;;;;;;;;;;;;5028313;28;20012;-45
2023/08/31 15:26:59;;;;;;;;;;;;;;;;;;5028702;28;19909;-48
2023/08/31 15:29:27;;;;;;;;;;;;;;;;;;5027816;28;20401;-44
2023/08/31 15:31:53;;;;;;;;;;;;;;;;;;5028230;28;20007;-47
2023/08/31 15:34:19;;;;;;;;;;;;;;;;;;5027999;28;20419;-46
2023/08/31 15:36:45;;;;;;;;;;;;;;;;;;5028175;28;19909;-45
2023/08/31 15:39:12;;;;;;;;;;;;;;;;;;5027463;28;19945;-44
2023/08/31 15:41:38;;;;;;;;;;;;;;;;;;5027696;28;19909;-45
2023/08/31 15:44:04;;;;;;;;;;;;;;;;;;5027628;28;19917;-44
2023/08/31 15:46:30;;;;;;;;;;;;;;;;;;5028497;28;19909;-44
2023/08/31 15:48:56;;;;;;;;;;;;;;;;;;5027536;28;20364;-45
2023/08/31 15:51:22;;;;;;;;;;;;;;;;;;5027540;28;19913;-45
2023/08/31 15:53:47;;;;;;;;;;;;;;;;;;5010109;28;19917;-49
2023/08/31 15:56:13;;;;;;;;;;;;;;;;;;5027900;28;19909;-44
2023/08/31 15:58:39;;;;;;;;;;;;;;;;;;5027658;28;19948;-45
2023/08/31 16:01:05;;;;;;;;;;;;;;;;;;5027908;28;19909;-45
2023/08/31 16:03:31;;;;;;;;;;;;;;;;;;5028214;28;19910;-44
2023/08/31 16:05:58;;;;;;;;;;;;;;;;;;5027850;28;19913;-44
2023/08/31 16:08:23;;;;;;;;;;;;;;;;;;5027476;28;19955;-46
2023/08/31 16:10:51;;;;;;;;;;;;;;;;;;5027282;28;20007;-45
2023/08/31 16:13:16;;;;;;;;;;;;;;;;;;5027712;28;20318;-46
2023/08/31 16:15:42;;;;;;;;;;;;;;;;;;5027193;28;19913;-45
2023/08/31 16:18:08;;;;;;;;;;;;;;;;;;5009564;28;20025;-44
2023/08/31 16:20:34;;;;;;;;;;;;;;;;;;5027078;28;19917;-44
2023/08/31 16:23:00;;;;;;;;;;;;;;;;;;5028093;28;19916;-46
2023/08/31 16:25:26;;;;;;;;;;;;;;;;;;5027045;28;19914;-44
2023/08/31 16:27:52;;;;;;;;;;;;;;;;;;5026871;28;19917;-44
2023/08/31 16:30:18;;;;;;;;;;;;;;;;;;5026969;28;19909;-44
2023/08/31 16:32:44;;;;;;;;;;;;;;;;;;5027372;28;20000;-45
2023/08/31 16:35:09;;;;;;;;;;;;;;;;;;5027205;28;19915;-48
2023/08/31 16:37:35;;;;;;;;;;;;;;;;;;5027279;28;19975;-45
2023/08/31 16:40:01;;;;;;;;;;;;;;;;;;5027298;28;19963;-44
2023/08/31 16:42:27;;;;;;;;;;;;;;;;;;5027017;28;20072;-46
2023/08/31 16:44:53;;;;;;;;;;;;;;;;;;5026681;28;19935;-46
2023/08/31 16:47:19;;;;;;;;;;;;;;;;;;5027080;28;19917;-44
2023/08/31 16:49:45;;;;;;;;;;;;;;;;;;5026830;28;19909;-43
2023/08/31 16:52:11;;;;;;;;;;;;;;;;;;5026080;28;19910;-48
2023/08/31 16:54:36;;;;;;;;;;;;;;;;;;5026715;28;19916;-46
2023/08/31 16:57:02;;;;;;;;;;;;;;;;;;5027725;28;20039;-44
2023/08/31 16:59:30;;;;;;;;;;;;;;;;;;5026783;28;19952;-47
2023/08/31 17:01:56;;;;;;;;;;;;;;;;;;5026822;28;19992;-46
2023/08/31 17:04:22;;;;;;;;;;;;;;;;;;5026600;28;20059;-46
2023/08/31 17:06:48;;;;;;;;;;;;;;;;;;5026479;28;19909;-48
2023/08/31 17:09:14;;;;;;;;;;;;;;;;;;5024419;28;19920;-44
2023/08/31 17:11:40;;;;;;;;;;;;;;;;;;5025438;28;19996;-47
2023/08/31 17:14:06;;;;;;;;;;;;;;;;;;5023854;28;19996;-45
2023/08/31 17:16:32;;;;;;;;;;;;;;;;;;5026817;28;19910;-45
2023/08/31 17:18:57;;;;;;;;;;;;;;;;;;5024397;28;19923;-46
2023/08/31 17:21:23;;;;;;;;;;;;;;;;;;5026183;28;19920;-48
2023/08/31 17:23:49;;;;;;;;;;;;;;;;;;5025895;28;19971;-46
2023/08/31 17:26:15;;;;;;;;;;;;;;;;;;5025043;28;19960;-44
2023/08/31 17:28:41;;;;;;;;;;;;;;;;;;5022579;28;19920;-49
2023/08/31 17:31:07;;;;;;;;;;;;;;;;;;5020983;28;19917;-45
2023/08/31 17:33:33;;;;;;;;;;;;;;;;;;4992292;28;19917;-48
2023/08/31 17:35:59;;;;;;;;;;;;;;;;;;5029618;28;19959;-48
2023/08/31 17:38:26;;;;;;;;;;;;;;;;;;5024798;28;19920;-44
2023/08/31 17:40:52;;;;;;;;;;;;;;;;;;5024203;28;20088;-45
2023/08/31 17:43:18;;;;;;;;;;;;;;;;;;5032569;28;19913;-45
2023/08/31 17:45:44;;;;;;;;;;;;;;;;;;5024932;28;19924;-46
2023/08/31 17:48:10;;;;;;;;;;;;;;;;;;5025646;28;19998;-46
2023/08/31 17:50:36;;;;;;;;;;;;;;;;;;5020889;28;19939;-45
2023/08/31 17:53:02;;;;;;;;;;;;;;;;;;5024529;28;19917;-45
2023/08/31 17:55:28;;;;;;;;;;;;;;;;;;5021320;28;20307;-45
2023/08/31 17:57:54;;;;;;;;;;;;;;;;;;5020800;28;19920;-45
2023/08/31 18:00:19;;;;;;;;;;;;;;;;;;5009455;28;19920;-44
2023/08/31 18:02:48;;;;;;;;;;;;;;;;;;5010466;28;20011;-44
2023/08/31 18:05:15;;;;;;;;;;;;;;;;;;5029216;28;19992;-45
2023/08/31 18:07:41;;;;;;;;;;;;;;;;;;5027060;28;19917;-47
2023/08/31 18:10:07;;;;;;;;;;;;;;;;;;5024393;28;19913;-44
2023/08/31 18:12:33;;;;;;;;;;;;;;;;;;5013191;28;19917;-47
2023/08/31 18:14:59;;;;;;;;;;;;;;;;;;5024240;28;19913;-47
2023/08/31 18:17:25;;;;;;;;;;;;;;;;;;5022148;28;21036;-45
2023/08/31 18:19:51;;;;;;;;;;;;;;;;;;5024600;28;19917;-44
2023/08/31 18:22:17;;;;;;;;;;;;;;;;;;5023560;28;19976;-45
2023/08/31 18:24:43;;;;;;;;;;;;;;;;;;5023032;28;20016;-46
2023/08/31 18:27:10;;;;;;;;;;;;;;;;;;5005980;28;20446;-46
2023/08/31 18:29:36;;;;;;;;;;;;;;;;;;5007828;28;19913;-44
2023/08/31 18:32:02;;;;;;;;;;;;;;;;;;5026359;28;20032;-44
2023/08/31 18:34:29;;;;;;;;;;;;;;;;;;5021032;28;19924;-47
2023/08/31 18:36:56;;;;;;;;;;;;;;;;;;5021870;28;19931;-44
2023/08/31 18:39:21;;;;;;;;;;;;;;;;;;5016617;28;20399;-46
2023/08/31 18:41:48;;;;;;;;;;;;;;;;;;5022127;28;19919;-49
2023/08/31 18:44:15;;;;;;;;;;;;;;;;;;5021368;28;20475;-51
2023/08/31 18:46:41;;;;;;;;;;;;;;;;;;5025644;28;19913;-51
2023/08/31 18:49:07;;;;;;;;;;;;;;;;;;5028779;28;20403;-48
2023/08/31 18:51:33;;;;;;;;;;;;;;;;;;5026717;28;19967;-50
2023/08/31 18:53:59;;;;;;;;;;;;;;;;;;5025595;28;19913;-51
2023/08/31 18:56:25;;;;;;;;;;;;;;;;;;5024358;28;20287;-52
2023/08/31 18:58:51;;;;;;;;;;;;;;;;;;5012498;28;19956;-50
2023/08/31 19:01:17;;;;;;;;;;;;;;;;;;5008041;28;19920;-50
2023/08/31 19:03:43;;;;;;;;;;;;;;;;;;5019446;28;19982;-48
2023/08/31 19:06:09;;;;;;;;;;;;;;;;;;5022586;28;19955;-51
2023/08/31 19:08:35;;;;;;;;;;;;;;;;;;5026839;28;19968;-48
2023/08/31 19:11:01;;;;;;;;;;;;;;;;;;5022216;28;19920;-48
2023/08/31 19:13:27;;;;;;;;;;;;;;;;;;5008955;28;19914;-53
2023/08/31 19:15:53;;;;;;;;;;;;;;;;;;5019861;28;20015;-51
2023/08/31 19:18:19;;;;;;;;;;;;;;;;;;5027391;28;19914;-49
2023/08/31 19:20:45;;;;;;;;;;;;;;;;;;5009179;28;19917;-48
2023/08/31 19:23:11;;;;;;;;;;;;;;;;;;5025577;28;20458;-47
2023/08/31 19:25:37;;;;;;;;;;;;;;;;;;5022862;28;19920;-51
2023/08/31 19:28:03;;;;;;;;;;;;;;;;;;5025223;28;19913;-51
2023/08/31 19:30:29;;;;;;;;;;;;;;;;;;5021269;28;19913;-48
2023/08/31 19:32:54;;;;;;;;;;;;;;;;;;5026709;28;19913;-50
2023/08/31 19:35:22;;;;;;;;;;;;;;;;;;5025992;28;19913;-50
2023/08/31 19:37:49;;;;;;;;;;;;;;;;;;5022290;28;19964;-52
2023/08/31 19:40:16;;;;;;;;;;;;;;;;;;5021748;28;19913;-51
2023/08/31 19:42:41;;;;;;;;;;;;;;;;;;5022018;28;19913;-48
2023/08/31 19:45:07;;;;;;;;;;;;;;;;;;5008963;28;20276;-51
2023/08/31 19:47:33;;;;;;;;;;;;;;;;;;5024636;28;19913;-52
2023/08/31 19:49:59;;;;;;;;;;;;;;;;;;5027316;28;19952;-49
2023/08/31 19:52:25;;;;;;;;;;;;;;;;;;5025752;28;19933;-49
2023/08/31 19:54:51;;;;;;;;;;;;;;;;;;5026947;28;20137;-49
2023/08/31 19:57:17;;;;;;;;;;;;;;;;;;5025341;28;19920;-47
2023/08/31 19:59:43;;;;;;;;;;;;;;;;;;5022136;28;20012;-50
2023/08/31 20:02:13;;;;;;;;;;;;;;;;;;5023770;28;20168;-49
2023/08/31 20:04:39;;;;;;;;;;;;;;;;;;5024077;28;19917;-49
2023/08/31 20:07:06;;;;;;;;;;;;;;;;;;5021209;28;19917;-51
2023/08/31 20:09:32;;;;;;;;;;;;;;;;;;5019729;28;19920;-49
2023/08/31 20:11:58;;;;;;;;;;;;;;;;;;5024689;28;20419;-48
2023/08/31 20:14:24;;;;;;;;;;;;;;;;;;5026530;28;19909;-52
2023/08/31 20:16:50;;;;;;;;;;;;;;;;;;5022303;28;20315;-49
2023/08/31 20:19:16;;;;;;;;;;;;;;;;;;5024266;28;20426;-50
2023/08/31 20:21:42;;;;;;;;;;;;;;;;;;5025710;28;19917;-52
2023/08/31 20:24:08;;;;;;;;;;;;;;;;;;5023753;28;19921;-48
2023/08/31 20:26:34;;;;;;;;;;;;;;;;;;5025449;28;19988;-48
2023/08/31 20:29:00;;;;;;;;;;;;;;;;;;5024752;28;19920;-51
2023/08/31 20:31:26;;;;;;;;;;;;;;;;;;5026515;28;19909;-48
2023/08/31 20:33:52;;;;;;;;;;;;;;;;;;5024326;28;19943;-49
2023/08/31 20:36:18;;;;;;;;;;;;;;;;;;5022863;28;19913;-52
2023/08/31 20:38:44;;;;;;;;;;;;;;;;;;5022993;28;19924;-48
2023/08/31 20:41:10;;;;;;;;;;;;;;;;;;5024434;28;19909;-48
2023/08/31 20:43:36;;;;;;;;;;;;;;;;;;5008405;28;20288;-52
2023/08/31 20:46:03;;;;;;;;;;;;;;;;;;5022137;28;19925;-51
2023/08/31 20:48:30;;;;;;;;;;;;;;;;;;5022603;28;20269;-49
2023/08/31 20:50:56;;;;;;;;;;;;;;;;;;5021382;28;20019;-48
2023/08/31 20:53:22;;;;;;;;;;;;;;;;;;5021814;28;20169;-51
2023/08/31 20:55:48;;;;;;;;;;;;;;;;;;5021758;28;19944;-46
2023/08/31 20:58:14;;;;;;;;;;;;;;;;;;5024233;28;19924;-51
2023/08/31 21:00:39;;;;;;;;;;;;;;;;;;5018514;28;19913;-48
2023/08/31 21:03:05;;;;;;;;;;;;;;;;;;5005524;28;19924;-48
2023/08/31 21:05:31;;;;;;;;;;;;;;;;;;5016814;28;19960;-47
2023/08/31 21:07:57;;;;;;;;;;;;;;;;;;5023762;28;20015;-48
2023/08/31 21:10:23;;;;;;;;;;;;;;;;;;5021654;28;19928;-50
2023/08/31 21:12:49;;;;;;;;;;;;;;;;;;5022290;28;20469;-51
2023/08/31 21:15:15;;;;;;;;;;;;;;;;;;5024731;28;20284;-48
2023/08/31 21:17:41;;;;;;;;;;;;;;;;;;5027476;28;20004;-48
2023/08/31 21:20:07;;;;;;;;;;;;;;;;;;5026565;28;20039;-52
2023/08/31 21:22:33;;;;;;;;;;;;;;;;;;5026641;28;20337;-51
2023/08/31 21:24:59;;;;;;;;;;;;;;;;;;5026821;28;20015;-51
2023/08/31 21:27:25;;;;;;;;;;;;;;;;;;5026716;28;19909;-49
2023/08/31 21:29:51;;;;;;;;;;;;;;;;;;5026065;28;19916;-52
2023/08/31 21:32:17;;;;;;;;;;;;;;;;;;5026661;28;20074;-50
2023/08/31 21:34:43;;;;;;;;;;;;;;;;;;5026692;28;19913;-50
2023/08/31 21:37:09;;;;;;;;;;;;;;;;;;5028337;28;19910;-44
2023/08/31 21:39:35;;;;;;;;;;;;;;;;;;5030008;28;19955;-45
2023/08/31 21:42:01;;;;;;;;;;;;;;;;;;5030283;28;19956;-44
2023/08/31 21:44:27;;;;;;;;;;;;;;;;;;5030176;28;20008;-44
2023/08/31 21:46:53;;;;;;;;;;;;;;;;;;5030303;28;20380;-49
2023/08/31 21:49:18;;;;;;;;;;;;;;;;;;5030071;28;20540;-49
2023/08/31 21:51:44;;;;;;;;;;;;;;;;;;5030272;28;20080;-51
2023/08/31 21:54:10;;;;;;;;;;;;;;;;;;5030702;28;19910;-50
2023/08/31 21:56:36;;;;;;;;;;;;;;;;;;5030078;28;19940;-51